sensor_id;sensor_type;location;lat;lon;timestamp;temperature;humidity
22008;DHT22;11168;56.976;24.168;2024-02-28T00:01:50;5.00;99.90
22008;DHT22;11168;56.976;24.168;2024-02-28T00:04:18;5.00;99.90
22008;DHT22;11168;56.976;24.168;2024-02-28T00:06:45;4.90;99.90
22008;DHT22;11168;56.976;24.168;2024-02-28T00:09:15;4.90;99.90
22008;DHT22;11168;56.976;24.168;2024-02-28T00:11:43;5.00;99.90
22008;DHT22;11168;56.976;24.168;2024-02-28T00:14:13;5.00;99.90
22008;DHT22;11168;56.976;24.168;2024-02-28T00:16:44;4.90;99.90
22008;DHT22;11168;56.976;24.168;2024-02-28T00:19:12;4.90;99.90
22008;DHT22;11168;56.976;24.168;2024-02-28T00:21:40;4.90;99.90
22008;DHT22;11168;56.976;24.168;2024-02-28T00:24:08;4.80;99.90
22008;DHT22;11168;56.976;24.168;2024-02-28T00:26:37;4.80;99.90
22008;DHT22;11168;56.976;24.168;2024-02-28T00:29:07;4.70;99.90
22008;DHT22;11168;56.976;24.168;2024-02-28T00:31:34;4.70;99.90
22008;DHT22;11168;56.976;24.168;2024-02-28T00:34:01;4.70;99.90
22008;DHT22;11168;56.976;24.168;2024-02-28T00:36:28;4.60;99.90
22008;DHT22;11168;56.976;24.168;2024-02-28T00:39:17;4.60;99.90
22008;DHT22;11168;56.976;24.168;2024-02-28T00:41:45;4.50;99.90
22008;DHT22;11168;56.976;24.168;2024-02-28T00:44:12;4.60;99.90
22008;DHT22;11168;56.976;24.168;2024-02-28T00:46:39;4.60;99.90
22008;DHT22;11168;56.976;24.168;2024-02-28T00:49:07;4.60;99.90
22008;DHT22;11168;56.976;24.168;2024-02-28T00:51:34;4.60;99.90
22008;DHT22;11168;56.976;24.168;2024-02-28T00:54:04;4.60;99.90
22008;DHT22;11168;56.976;24.168;2024-02-28T00:56:33;4.70;99.90
22008;DHT22;11168;56.976;24.168;2024-02-28T00:59:00;4.70;99.90
22008;DHT22;11168;56.976;24.168;2024-02-28T01:01:27;4.70;99.90
22008;DHT22;11168;56.976;24.168;2024-02-28T01:03:54;4.70;99.90
22008;DHT22;11168;56.976;24.168;2024-02-28T01:06:21;4.70;99.90
22008;DHT22;11168;56.976;24.168;2024-02-28T01:08:48;4.70;99.90
22008;DHT22;11168;56.976;24.168;2024-02-28T01:11:15;4.60;99.90
22008;DHT22;11168;56.976;24.168;2024-02-28T01:16:15;4.60;99.90
22008;DHT22;11168;56.976;24.168;2024-02-28T01:18:43;4.60;99.90
22008;DHT22;11168;56.976;24.168;2024-02-28T01:21:10;4.60;99.90
22008;DHT22;11168;56.976;24.168;2024-02-28T01:23:37;4.60;99.90
22008;DHT22;11168;56.976;24.168;2024-02-28T01:26:04;4.50;99.90
22008;DHT22;11168;56.976;24.168;2024-02-28T01:28:33;4.60;99.90
22008;DHT22;11168;56.976;24.168;2024-02-28T01:31:02;4.60;99.90
22008;DHT22;11168;56.976;24.168;2024-02-28T01:33:29;4.60;99.90
22008;DHT22;11168;56.976;24.168;2024-02-28T01:35:55;4.60;99.90
22008;DHT22;11168;56.976;24.168;2024-02-28T01:38:25;4.70;99.90
22008;DHT22;11168;56.976;24.168;2024-02-28T01:40:55;4.80;99.90
22008;DHT22;11168;56.976;24.168;2024-02-28T01:43:22;4.70;99.90
22008;DHT22;11168;56.976;24.168;2024-02-28T01:45:49;4.70;99.90
22008;DHT22;11168;56.976;24.168;2024-02-28T01:48:16;4.60;99.90
22008;DHT22;11168;56.976;24.168;2024-02-28T01:50:44;4.60;99.90
22008;DHT22;11168;56.976;24.168;2024-02-28T01:53:14;4.60;99.90
22008;DHT22;11168;56.976;24.168;2024-02-28T01:55:44;4.50;99.90
22008;DHT22;11168;56.976;24.168;2024-02-28T01:58:12;4.50;99.90
22008;DHT22;11168;56.976;24.168;2024-02-28T02:00:39;4.60;99.90
22008;DHT22;11168;56.976;24.168;2024-02-28T02:03:06;4.70;99.90
22008;DHT22;11168;56.976;24.168;2024-02-28T02:05:33;4.60;99.90
22008;DHT22;11168;56.976;24.168;2024-02-28T02:08:01;4.60;99.90
22008;DHT22;11168;56.976;24.168;2024-02-28T02:10:28;4.50;99.90
22008;DHT22;11168;56.976;24.168;2024-02-28T02:13:04;4.40;99.90
22008;DHT22;11168;56.976;24.168;2024-02-28T02:15:31;4.50;99.90
22008;DHT22;11168;56.976;24.168;2024-02-28T02:18:00;4.40;99.90
22008;DHT22;11168;56.976;24.168;2024-02-28T02:20:30;4.40;99.90
22008;DHT22;11168;56.976;24.168;2024-02-28T02:22:59;4.40;99.90
22008;DHT22;11168;56.976;24.168;2024-02-28T02:25:26;4.50;99.90
22008;DHT22;11168;56.976;24.168;2024-02-28T02:27:53;4.50;99.90
22008;DHT22;11168;56.976;24.168;2024-02-28T02:30:20;4.50;99.90
22008;DHT22;11168;56.976;24.168;2024-02-28T02:32:50;4.50;99.90
22008;DHT22;11168;56.976;24.168;2024-02-28T02:35:17;4.50;99.90
22008;DHT22;11168;56.976;24.168;2024-02-28T02:37:44;4.60;99.90
22008;DHT22;11168;56.976;24.168;2024-02-28T02:40:17;4.50;99.90
22008;DHT22;11168;56.976;24.168;2024-02-28T02:42:44;4.50;99.90
22008;DHT22;11168;56.976;24.168;2024-02-28T02:45:11;4.60;99.90
22008;DHT22;11168;56.976;24.168;2024-02-28T02:47:38;4.50;99.90
22008;DHT22;11168;56.976;24.168;2024-02-28T02:50:06;4.60;99.90
22008;DHT22;11168;56.976;24.168;2024-02-28T02:52:33;4.50;99.90
22008;DHT22;11168;56.976;24.168;2024-02-28T02:55:00;4.40;99.90
22008;DHT22;11168;56.976;24.168;2024-02-28T02:57:28;4.40;99.90
22008;DHT22;11168;56.976;24.168;2024-02-28T02:59:57;4.40;99.90
22008;DHT22;11168;56.976;24.168;2024-02-28T03:02:24;4.40;99.90
22008;DHT22;11168;56.976;24.168;2024-02-28T03:04:51;4.30;99.90
22008;DHT22;11168;56.976;24.168;2024-02-28T03:07:18;4.40;99.90
22008;DHT22;11168;56.976;24.168;2024-02-28T03:09:46;4.30;99.90
22008;DHT22;11168;56.976;24.168;2024-02-28T03:12:16;4.40;99.90
22008;DHT22;11168;56.976;24.168;2024-02-28T03:14:43;4.30;99.90
22008;DHT22;11168;56.976;24.168;2024-02-28T03:17:10;4.30;99.90
22008;DHT22;11168;56.976;24.168;2024-02-28T03:19:37;4.30;99.90
22008;DHT22;11168;56.976;24.168;2024-02-28T03:22:05;4.40;99.90
22008;DHT22;11168;56.976;24.168;2024-02-28T03:24:37;4.40;99.90
22008;DHT22;11168;56.976;24.168;2024-02-28T03:27:05;4.40;99.90
22008;DHT22;11168;56.976;24.168;2024-02-28T03:29:34;4.40;99.90
22008;DHT22;11168;56.976;24.168;2024-02-28T03:32:02;4.50;99.90
22008;DHT22;11168;56.976;24.168;2024-02-28T03:34:29;4.40;99.90
22008;DHT22;11168;56.976;24.168;2024-02-28T03:36:57;4.40;99.90
22008;DHT22;11168;56.976;24.168;2024-02-28T03:39:24;4.50;99.90
22008;DHT22;11168;56.976;24.168;2024-02-28T03:41:52;4.50;99.90
22008;DHT22;11168;56.976;24.168;2024-02-28T03:44:21;4.50;99.90
22008;DHT22;11168;56.976;24.168;2024-02-28T03:46:48;4.50;99.90
22008;DHT22;11168;56.976;24.168;2024-02-28T03:49:15;4.40;99.90
22008;DHT22;11168;56.976;24.168;2024-02-28T03:51:42;4.40;99.90
22008;DHT22;11168;56.976;24.168;2024-02-28T03:54:13;4.40;99.90
22008;DHT22;11168;56.976;24.168;2024-02-28T03:56:40;4.40;99.90
22008;DHT22;11168;56.976;24.168;2024-02-28T03:59:07;4.40;99.90
22008;DHT22;11168;56.976;24.168;2024-02-28T04:01:34;4.40;99.90
22008;DHT22;11168;56.976;24.168;2024-02-28T04:04:01;4.30;99.90
22008;DHT22;11168;56.976;24.168;2024-02-28T04:06:29;4.40;99.90
22008;DHT22;11168;56.976;24.168;2024-02-28T04:08:57;4.30;99.90
22008;DHT22;11168;56.976;24.168;2024-02-28T04:11:24;4.30;99.90
22008;DHT22;11168;56.976;24.168;2024-02-28T04:13:51;4.20;99.90
22008;DHT22;11168;56.976;24.168;2024-02-28T04:16:20;4.20;99.90
22008;DHT22;11168;56.976;24.168;2024-02-28T04:18:48;4.20;99.90
22008;DHT22;11168;56.976;24.168;2024-02-28T04:21:15;4.20;99.90
22008;DHT22;11168;56.976;24.168;2024-02-28T04:23:43;4.20;99.90
22008;DHT22;11168;56.976;24.168;2024-02-28T04:26:10;4.30;99.90
22008;DHT22;11168;56.976;24.168;2024-02-28T04:28:38;4.20;99.90
22008;DHT22;11168;56.976;24.168;2024-02-28T04:31:05;4.20;99.90
22008;DHT22;11168;56.976;24.168;2024-02-28T04:33:36;4.20;99.90
22008;DHT22;11168;56.976;24.168;2024-02-28T04:36:03;4.10;99.90
22008;DHT22;11168;56.976;24.168;2024-02-28T04:38:30;4.20;99.90
22008;DHT22;11168;56.976;24.168;2024-02-28T04:40:57;4.10;99.90
22008;DHT22;11168;56.976;24.168;2024-02-28T04:43:24;4.10;99.90
22008;DHT22;11168;56.976;24.168;2024-02-28T04:45:51;4.00;99.90
22008;DHT22;11168;56.976;24.168;2024-02-28T04:48:18;4.00;99.90
22008;DHT22;11168;56.976;24.168;2024-02-28T04:50:45;4.00;99.90
22008;DHT22;11168;56.976;24.168;2024-02-28T04:53:12;3.90;99.90
22008;DHT22;11168;56.976;24.168;2024-02-28T04:55:42;4.00;99.90
22008;DHT22;11168;56.976;24.168;2024-02-28T04:58:09;4.00;99.90
22008;DHT22;11168;56.976;24.168;2024-02-28T05:00:36;4.00;99.90
22008;DHT22;11168;56.976;24.168;2024-02-28T05:03:04;4.10;99.90
22008;DHT22;11168;56.976;24.168;2024-02-28T05:05:31;4.00;99.90
22008;DHT22;11168;56.976;24.168;2024-02-28T05:07:58;4.00;99.90
22008;DHT22;11168;56.976;24.168;2024-02-28T05:10:25;4.00;99.90
22008;DHT22;11168;56.976;24.168;2024-02-28T05:12:53;4.00;99.90
22008;DHT22;11168;56.976;24.168;2024-02-28T05:15:20;3.90;99.90
22008;DHT22;11168;56.976;24.168;2024-02-28T05:17:50;3.90;99.90
22008;DHT22;11168;56.976;24.168;2024-02-28T05:20:18;3.90;99.90
22008;DHT22;11168;56.976;24.168;2024-02-28T05:22:45;3.90;99.90
22008;DHT22;11168;56.976;24.168;2024-02-28T05:25:12;3.90;99.90
22008;DHT22;11168;56.976;24.168;2024-02-28T05:27:40;4.00;99.90
22008;DHT22;11168;56.976;24.168;2024-02-28T05:30:08;4.00;99.90
22008;DHT22;11168;56.976;24.168;2024-02-28T05:32:36;4.00;99.90
22008;DHT22;11168;56.976;24.168;2024-02-28T05:35:05;3.90;99.90
22008;DHT22;11168;56.976;24.168;2024-02-28T05:37:35;4.00;99.90
22008;DHT22;11168;56.976;24.168;2024-02-28T05:40:02;3.90;99.90
22008;DHT22;11168;56.976;24.168;2024-02-28T05:42:29;3.90;99.90
22008;DHT22;11168;56.976;24.168;2024-02-28T05:44:58;3.90;99.90
22008;DHT22;11168;56.976;24.168;2024-02-28T05:47:25;3.90;99.90
22008;DHT22;11168;56.976;24.168;2024-02-28T05:49:53;3.90;99.90
22008;DHT22;11168;56.976;24.168;2024-02-28T05:52:22;3.90;99.90
22008;DHT22;11168;56.976;24.168;2024-02-28T05:54:52;4.00;99.90
22008;DHT22;11168;56.976;24.168;2024-02-28T05:57:20;4.00;99.90
22008;DHT22;11168;56.976;24.168;2024-02-28T05:59:47;4.00;99.90
22008;DHT22;11168;56.976;24.168;2024-02-28T06:02:14;4.00;99.90
22008;DHT22;11168;56.976;24.168;2024-02-28T06:04:41;4.10;99.90
22008;DHT22;11168;56.976;24.168;2024-02-28T06:07:08;4.10;99.90
22008;DHT22;11168;56.976;24.168;2024-02-28T06:09:35;4.00;99.90
22008;DHT22;11168;56.976;24.168;2024-02-28T06:12:05;4.00;99.90
22008;DHT22;11168;56.976;24.168;2024-02-28T06:14:32;4.00;99.90
22008;DHT22;11168;56.976;24.168;2024-02-28T06:16:59;4.00;99.90
22008;DHT22;11168;56.976;24.168;2024-02-28T06:19:29;4.10;99.90
22008;DHT22;11168;56.976;24.168;2024-02-28T06:21:57;4.10;99.90
22008;DHT22;11168;56.976;24.168;2024-02-28T06:24:27;4.10;99.90
22008;DHT22;11168;56.976;24.168;2024-02-28T06:26:55;4.10;99.90
22008;DHT22;11168;56.976;24.168;2024-02-28T06:29:22;4.00;99.90
22008;DHT22;11168;56.976;24.168;2024-02-28T06:31:52;4.10;99.90
22008;DHT22;11168;56.976;24.168;2024-02-28T06:34:19;4.10;99.90
22008;DHT22;11168;56.976;24.168;2024-02-28T06:36:46;4.10;99.90
22008;DHT22;11168;56.976;24.168;2024-02-28T06:39:16;4.10;99.90
22008;DHT22;11168;56.976;24.168;2024-02-28T06:41:43;4.10;99.90
22008;DHT22;11168;56.976;24.168;2024-02-28T06:44:10;4.10;99.90
22008;DHT22;11168;56.976;24.168;2024-02-28T06:46:38;4.10;99.90
22008;DHT22;11168;56.976;24.168;2024-02-28T06:49:06;4.20;99.90
22008;DHT22;11168;56.976;24.168;2024-02-28T06:51:33;4.20;99.90
22008;DHT22;11168;56.976;24.168;2024-02-28T06:54:00;4.20;99.90
22008;DHT22;11168;56.976;24.168;2024-02-28T06:56:27;4.20;99.90
22008;DHT22;11168;56.976;24.168;2024-02-28T06:58:54;4.20;99.90
22008;DHT22;11168;56.976;24.168;2024-02-28T07:01:21;4.20;99.90
22008;DHT22;11168;56.976;24.168;2024-02-28T07:03:48;4.20;99.90
22008;DHT22;11168;56.976;24.168;2024-02-28T07:06:15;4.30;99.90
22008;DHT22;11168;56.976;24.168;2024-02-28T07:08:42;4.30;99.90
22008;DHT22;11168;56.976;24.168;2024-02-28T07:11:14;4.30;99.90
22008;DHT22;11168;56.976;24.168;2024-02-28T07:13:42;4.30;99.90
22008;DHT22;11168;56.976;24.168;2024-02-28T07:16:09;4.20;99.90
22008;DHT22;11168;56.976;24.168;2024-02-28T07:18:37;4.20;99.90
22008;DHT22;11168;56.976;24.168;2024-02-28T07:21:04;4.30;99.90
22008;DHT22;11168;56.976;24.168;2024-02-28T07:23:33;4.20;99.90
22008;DHT22;11168;56.976;24.168;2024-02-28T07:26:01;4.20;99.90
22008;DHT22;11168;56.976;24.168;2024-02-28T07:28:42;4.30;99.90
22008;DHT22;11168;56.976;24.168;2024-02-28T07:31:19;4.30;99.90
22008;DHT22;11168;56.976;24.168;2024-02-28T07:33:46;4.40;99.90
22008;DHT22;11168;56.976;24.168;2024-02-28T07:36:13;4.30;99.90
22008;DHT22;11168;56.976;24.168;2024-02-28T07:38:44;4.40;99.90
22008;DHT22;11168;56.976;24.168;2024-02-28T07:41:12;4.30;99.90
22008;DHT22;11168;56.976;24.168;2024-02-28T07:43:42;4.40;99.90
22008;DHT22;11168;56.976;24.168;2024-02-28T07:46:10;4.30;99.90
22008;DHT22;11168;56.976;24.168;2024-02-28T07:48:38;4.30;99.90
22008;DHT22;11168;56.976;24.168;2024-02-28T07:51:07;4.30;99.90
22008;DHT22;11168;56.976;24.168;2024-02-28T07:53:35;4.30;99.90
22008;DHT22;11168;56.976;24.168;2024-02-28T07:56:03;4.30;99.90
22008;DHT22;11168;56.976;24.168;2024-02-28T07:58:30;4.30;99.90
22008;DHT22;11168;56.976;24.168;2024-02-28T08:00:57;4.20;99.90
22008;DHT22;11168;56.976;24.168;2024-02-28T08:03:24;4.30;99.90
22008;DHT22;11168;56.976;24.168;2024-02-28T08:05:52;4.40;99.90
22008;DHT22;11168;56.976;24.168;2024-02-28T08:08:19;4.40;99.90
22008;DHT22;11168;56.976;24.168;2024-02-28T08:10:46;4.40;99.90
22008;DHT22;11168;56.976;24.168;2024-02-28T08:13:16;4.40;99.90
22008;DHT22;11168;56.976;24.168;2024-02-28T08:15:43;4.40;99.90
22008;DHT22;11168;56.976;24.168;2024-02-28T08:18:10;4.40;99.90
22008;DHT22;11168;56.976;24.168;2024-02-28T08:20:40;4.40;99.90
22008;DHT22;11168;56.976;24.168;2024-02-28T08:25:39;4.40;99.90
22008;DHT22;11168;56.976;24.168;2024-02-28T08:28:06;4.40;99.90
22008;DHT22;11168;56.976;24.168;2024-02-28T08:30:34;4.50;99.90
22008;DHT22;11168;56.976;24.168;2024-02-28T08:33:01;4.50;99.90
22008;DHT22;11168;56.976;24.168;2024-02-28T08:35:28;4.50;99.90
22008;DHT22;11168;56.976;24.168;2024-02-28T08:37:56;4.50;99.90
22008;DHT22;11168;56.976;24.168;2024-02-28T08:40:23;4.50;99.90
22008;DHT22;11168;56.976;24.168;2024-02-28T08:42:50;4.60;99.90
22008;DHT22;11168;56.976;24.168;2024-02-28T08:45:23;4.60;99.90
22008;DHT22;11168;56.976;24.168;2024-02-28T08:47:50;4.60;99.90
22008;DHT22;11168;56.976;24.168;2024-02-28T08:50:17;4.60;99.90
22008;DHT22;11168;56.976;24.168;2024-02-28T08:52:46;4.60;99.90
22008;DHT22;11168;56.976;24.168;2024-02-28T08:55:13;4.60;99.90
22008;DHT22;11168;56.976;24.168;2024-02-28T08:57:41;4.70;99.90
22008;DHT22;11168;56.976;24.168;2024-02-28T09:00:09;4.70;99.90
22008;DHT22;11168;56.976;24.168;2024-02-28T09:02:36;4.70;99.90
22008;DHT22;11168;56.976;24.168;2024-02-28T09:05:04;4.70;99.90
22008;DHT22;11168;56.976;24.168;2024-02-28T09:07:33;4.80;99.90
22008;DHT22;11168;56.976;24.168;2024-02-28T09:10:06;4.80;99.90
22008;DHT22;11168;56.976;24.168;2024-02-28T09:12:33;4.90;99.90
22008;DHT22;11168;56.976;24.168;2024-02-28T09:15:01;4.90;99.90
22008;DHT22;11168;56.976;24.168;2024-02-28T09:17:28;5.00;99.90
22008;DHT22;11168;56.976;24.168;2024-02-28T09:19:55;5.00;99.90
22008;DHT22;11168;56.976;24.168;2024-02-28T09:22:22;5.10;99.90
22008;DHT22;11168;56.976;24.168;2024-02-28T09:24:51;5.10;99.90
22008;DHT22;11168;56.976;24.168;2024-02-28T09:27:18;5.10;99.90
22008;DHT22;11168;56.976;24.168;2024-02-28T09:29:45;5.20;99.90
22008;DHT22;11168;56.976;24.168;2024-02-28T09:32:12;5.30;99.90
22008;DHT22;11168;56.976;24.168;2024-02-28T09:34:39;5.30;99.90
22008;DHT22;11168;56.976;24.168;2024-02-28T09:37:07;5.30;99.90
22008;DHT22;11168;56.976;24.168;2024-02-28T09:39:34;5.30;99.90
22008;DHT22;11168;56.976;24.168;2024-02-28T09:42:01;5.30;99.90
22008;DHT22;11168;56.976;24.168;2024-02-28T09:44:29;5.30;99.90
22008;DHT22;11168;56.976;24.168;2024-02-28T09:46:56;5.40;99.90
22008;DHT22;11168;56.976;24.168;2024-02-28T09:49:24;5.40;99.90
22008;DHT22;11168;56.976;24.168;2024-02-28T09:51:54;5.40;99.90
22008;DHT22;11168;56.976;24.168;2024-02-28T09:54:22;5.40;99.90
22008;DHT22;11168;56.976;24.168;2024-02-28T09:56:50;5.40;99.90
22008;DHT22;11168;56.976;24.168;2024-02-28T09:59:18;5.30;99.90
22008;DHT22;11168;56.976;24.168;2024-02-28T10:01:57;5.30;99.90
22008;DHT22;11168;56.976;24.168;2024-02-28T10:04:26;5.30;99.90
22008;DHT22;11168;56.976;24.168;2024-02-28T10:06:56;5.30;99.90
22008;DHT22;11168;56.976;24.168;2024-02-28T10:09:23;5.30;99.90
22008;DHT22;11168;56.976;24.168;2024-02-28T10:11:52;5.20;99.90
22008;DHT22;11168;56.976;24.168;2024-02-28T10:14:21;5.30;99.90
22008;DHT22;11168;56.976;24.168;2024-02-28T10:16:48;5.30;99.90
22008;DHT22;11168;56.976;24.168;2024-02-28T10:19:17;5.30;99.90
22008;DHT22;11168;56.976;24.168;2024-02-28T10:21:46;5.30;99.90
22008;DHT22;11168;56.976;24.168;2024-02-28T10:24:13;5.40;99.90
22008;DHT22;11168;56.976;24.168;2024-02-28T10:26:49;5.40;99.90
22008;DHT22;11168;56.976;24.168;2024-02-28T10:29:25;5.30;99.90
22008;DHT22;11168;56.976;24.168;2024-02-28T10:31:58;5.30;99.90
22008;DHT22;11168;56.976;24.168;2024-02-28T10:34:25;5.40;99.90
22008;DHT22;11168;56.976;24.168;2024-02-28T10:36:52;5.40;99.90
22008;DHT22;11168;56.976;24.168;2024-02-28T10:39:22;5.40;99.90
22008;DHT22;11168;56.976;24.168;2024-02-28T10:41:50;5.40;99.90
22008;DHT22;11168;56.976;24.168;2024-02-28T10:44:20;5.40;99.90
22008;DHT22;11168;56.976;24.168;2024-02-28T10:46:49;5.50;99.90
22008;DHT22;11168;56.976;24.168;2024-02-28T10:49:17;5.50;99.90
22008;DHT22;11168;56.976;24.168;2024-02-28T10:51:47;5.40;99.90
22008;DHT22;11168;56.976;24.168;2024-02-28T10:54:15;5.40;99.90
22008;DHT22;11168;56.976;24.168;2024-02-28T10:56:43;5.50;99.90
22008;DHT22;11168;56.976;24.168;2024-02-28T10:59:12;5.60;99.90
22008;DHT22;11168;56.976;24.168;2024-02-28T11:01:43;5.60;99.90
22008;DHT22;11168;56.976;24.168;2024-02-28T11:04:12;5.60;99.90
22008;DHT22;11168;56.976;24.168;2024-02-28T11:06:51;5.50;99.90
22008;DHT22;11168;56.976;24.168;2024-02-28T11:09:23;5.60;99.90
22008;DHT22;11168;56.976;24.168;2024-02-28T11:11:52;5.60;99.90
22008;DHT22;11168;56.976;24.168;2024-02-28T11:14:19;5.60;99.90
22008;DHT22;11168;56.976;24.168;2024-02-28T11:17:04;5.50;99.90
22008;DHT22;11168;56.976;24.168;2024-02-28T11:19:33;5.50;99.90
22008;DHT22;11168;56.976;24.168;2024-02-28T11:22:02;5.50;99.90
22008;DHT22;11168;56.976;24.168;2024-02-28T11:24:33;5.50;99.90
22008;DHT22;11168;56.976;24.168;2024-02-28T11:27:01;5.50;99.90
22008;DHT22;11168;56.976;24.168;2024-02-28T11:29:33;5.60;99.90
22008;DHT22;11168;56.976;24.168;2024-02-28T11:32:00;5.50;99.90
22008;DHT22;11168;56.976;24.168;2024-02-28T11:34:28;5.50;99.90
22008;DHT22;11168;56.976;24.168;2024-02-28T11:36:55;5.50;99.90
22008;DHT22;11168;56.976;24.168;2024-02-28T11:39:23;5.50;99.90
22008;DHT22;11168;56.976;24.168;2024-02-28T11:41:52;5.40;99.90
22008;DHT22;11168;56.976;24.168;2024-02-28T11:44:20;5.50;99.90
22008;DHT22;11168;56.976;24.168;2024-02-28T11:46:49;5.40;99.90
22008;DHT22;11168;56.976;24.168;2024-02-28T11:49:18;5.30;99.90
22008;DHT22;11168;56.976;24.168;2024-02-28T11:51:45;5.30;99.90
22008;DHT22;11168;56.976;24.168;2024-02-28T11:54:13;5.30;99.90
22008;DHT22;11168;56.976;24.168;2024-02-28T11:56:40;5.20;99.90
22008;DHT22;11168;56.976;24.168;2024-02-28T11:59:11;5.20;99.90
22008;DHT22;11168;56.976;24.168;2024-02-28T12:01:40;5.20;99.90
22008;DHT22;11168;56.976;24.168;2024-02-28T12:04:08;5.20;99.90
22008;DHT22;11168;56.976;24.168;2024-02-28T12:06:37;5.10;99.90
22008;DHT22;11168;56.976;24.168;2024-02-28T12:09:11;5.10;99.90
22008;DHT22;11168;56.976;24.168;2024-02-28T12:11:44;5.10;99.90
22008;DHT22;11168;56.976;24.168;2024-02-28T12:14:12;5.10;99.90
22008;DHT22;11168;56.976;24.168;2024-02-28T12:16:40;5.10;99.90
22008;DHT22;11168;56.976;24.168;2024-02-28T12:19:11;5.10;99.90
22008;DHT22;11168;56.976;24.168;2024-02-28T12:21:41;5.10;99.90
22008;DHT22;11168;56.976;24.168;2024-02-28T12:24:09;5.10;99.90
22008;DHT22;11168;56.976;24.168;2024-02-28T12:26:40;5.10;99.90
22008;DHT22;11168;56.976;24.168;2024-02-28T12:29:07;5.10;99.90
22008;DHT22;11168;56.976;24.168;2024-02-28T12:31:36;5.10;99.90
22008;DHT22;11168;56.976;24.168;2024-02-28T12:34:04;5.10;99.90
22008;DHT22;11168;56.976;24.168;2024-02-28T12:36:35;5.00;99.90
22008;DHT22;11168;56.976;24.168;2024-02-28T12:39:02;5.00;99.90
22008;DHT22;11168;56.976;24.168;2024-02-28T12:41:30;5.00;99.90
22008;DHT22;11168;56.976;24.168;2024-02-28T12:43:57;5.00;99.90
22008;DHT22;11168;56.976;24.168;2024-02-28T12:46:27;5.10;99.90
22008;DHT22;11168;56.976;24.168;2024-02-28T12:48:54;4.90;99.90
22008;DHT22;11168;56.976;24.168;2024-02-28T12:51:37;5.00;99.90
22008;DHT22;11168;56.976;24.168;2024-02-28T12:54:05;5.00;99.90
22008;DHT22;11168;56.976;24.168;2024-02-28T12:56:32;5.00;99.90
22008;DHT22;11168;56.976;24.168;2024-02-28T12:58:59;5.00;99.90
22008;DHT22;11168;56.976;24.168;2024-02-28T13:01:30;5.00;99.90
22008;DHT22;11168;56.976;24.168;2024-02-28T13:03:57;5.00;99.90
22008;DHT22;11168;56.976;24.168;2024-02-28T13:06:25;5.00;99.90
22008;DHT22;11168;56.976;24.168;2024-02-28T13:08:52;4.90;99.90
22008;DHT22;11168;56.976;24.168;2024-02-28T13:11:21;5.00;99.90
22008;DHT22;11168;56.976;24.168;2024-02-28T13:13:49;5.00;99.90
22008;DHT22;11168;56.976;24.168;2024-02-28T13:16:17;5.00;99.90
22008;DHT22;11168;56.976;24.168;2024-02-28T13:18:45;4.90;99.90
22008;DHT22;11168;56.976;24.168;2024-02-28T13:21:13;4.90;99.90
22008;DHT22;11168;56.976;24.168;2024-02-28T13:23:40;4.80;99.90
22008;DHT22;11168;56.976;24.168;2024-02-28T13:26:08;4.80;99.90
22008;DHT22;11168;56.976;24.168;2024-02-28T13:28:35;4.70;99.90
22008;DHT22;11168;56.976;24.168;2024-02-28T13:31:03;4.70;99.90
22008;DHT22;11168;56.976;24.168;2024-02-28T13:33:34;4.70;99.90
22008;DHT22;11168;56.976;24.168;2024-02-28T13:36:07;4.60;99.90
22008;DHT22;11168;56.976;24.168;2024-02-28T13:38:33;4.50;99.90
22008;DHT22;11168;56.976;24.168;2024-02-28T13:41:01;4.50;99.90
22008;DHT22;11168;56.976;24.168;2024-02-28T13:43:28;4.50;99.90
22008;DHT22;11168;56.976;24.168;2024-02-28T13:45:55;4.40;99.90
22008;DHT22;11168;56.976;24.168;2024-02-28T13:48:30;4.40;99.90
22008;DHT22;11168;56.976;24.168;2024-02-28T13:51:01;4.40;99.90
22008;DHT22;11168;56.976;24.168;2024-02-28T13:53:31;4.30;99.90
22008;DHT22;11168;56.976;24.168;2024-02-28T13:56:00;4.30;99.90
22008;DHT22;11168;56.976;24.168;2024-02-28T13:58:27;4.20;99.90
22008;DHT22;11168;56.976;24.168;2024-02-28T14:01:05;4.20;99.90
22008;DHT22;11168;56.976;24.168;2024-02-28T14:03:34;4.20;99.90
22008;DHT22;11168;56.976;24.168;2024-02-28T14:06:01;4.20;99.90
22008;DHT22;11168;56.976;24.168;2024-02-28T14:08:28;4.20;99.90
22008;DHT22;11168;56.976;24.168;2024-02-28T14:11:01;4.20;99.90
22008;DHT22;11168;56.976;24.168;2024-02-28T14:13:29;4.20;99.90
22008;DHT22;11168;56.976;24.168;2024-02-28T14:16:01;4.20;99.90
22008;DHT22;11168;56.976;24.168;2024-02-28T14:18:28;4.20;99.90
22008;DHT22;11168;56.976;24.168;2024-02-28T14:20:56;4.10;99.90
22008;DHT22;11168;56.976;24.168;2024-02-28T14:23:23;4.20;99.90
22008;DHT22;11168;56.976;24.168;2024-02-28T14:25:50;4.10;99.90
22008;DHT22;11168;56.976;24.168;2024-02-28T14:28:17;4.10;99.90
22008;DHT22;11168;56.976;24.168;2024-02-28T14:30:46;4.10;99.90
22008;DHT22;11168;56.976;24.168;2024-02-28T14:33:16;4.10;99.90
22008;DHT22;11168;56.976;24.168;2024-02-28T14:35:43;4.10;99.90
22008;DHT22;11168;56.976;24.168;2024-02-28T14:38:11;4.10;99.90
22008;DHT22;11168;56.976;24.168;2024-02-28T14:40:38;4.10;99.90
22008;DHT22;11168;56.976;24.168;2024-02-28T14:43:07;4.00;99.90
22008;DHT22;11168;56.976;24.168;2024-02-28T14:45:35;4.10;99.90
22008;DHT22;11168;56.976;24.168;2024-02-28T14:48:07;4.00;99.90
22008;DHT22;11168;56.976;24.168;2024-02-28T14:50:34;4.00;99.90
22008;DHT22;11168;56.976;24.168;2024-02-28T14:53:01;4.10;99.90
22008;DHT22;11168;56.976;24.168;2024-02-28T14:55:28;4.00;99.90
22008;DHT22;11168;56.976;24.168;2024-02-28T14:57:55;4.00;99.90
22008;DHT22;11168;56.976;24.168;2024-02-28T15:00:24;4.00;99.90
22008;DHT22;11168;56.976;24.168;2024-02-28T15:02:52;4.00;99.90
22008;DHT22;11168;56.976;24.168;2024-02-28T15:05:21;3.80;99.90
22008;DHT22;11168;56.976;24.168;2024-02-28T15:07:48;3.80;99.90
22008;DHT22;11168;56.976;24.168;2024-02-28T15:10:15;3.80;99.90
22008;DHT22;11168;56.976;24.168;2024-02-28T15:12:42;3.80;99.90
22008;DHT22;11168;56.976;24.168;2024-02-28T15:15:12;3.70;99.90
22008;DHT22;11168;56.976;24.168;2024-02-28T15:17:39;3.70;99.90
22008;DHT22;11168;56.976;24.168;2024-02-28T15:20:09;3.70;99.90
22008;DHT22;11168;56.976;24.168;2024-02-28T15:22:37;3.70;99.90
22008;DHT22;11168;56.976;24.168;2024-02-28T15:25:04;3.70;99.90
22008;DHT22;11168;56.976;24.168;2024-02-28T15:27:32;3.70;99.90
22008;DHT22;11168;56.976;24.168;2024-02-28T15:30:00;3.80;99.90
22008;DHT22;11168;56.976;24.168;2024-02-28T15:34:57;3.70;99.90
22008;DHT22;11168;56.976;24.168;2024-02-28T15:37:24;3.80;99.90
22008;DHT22;11168;56.976;24.168;2024-02-28T15:39:52;3.70;99.90
22008;DHT22;11168;56.976;24.168;2024-02-28T15:42:20;3.80;99.90
22008;DHT22;11168;56.976;24.168;2024-02-28T15:44:47;3.70;99.90